Time;durP1;ratioP1;P1;durP2;ratioP2;P2;SDS_P1;SDS_P2;PMS_P1;PMS_P2;Temp;Humidity;BMP_temperature;BMP_pressure;BME280_temperature;BME280_humidity;BME280_pressure;Samples;Min_cycle;Max_cycle;Signal;HPM_P1;HPM_P2
2022/04/25 00:01:59;;;;;;;;;;;;;;;9.21;74.54;96810.38;4950195;28;20085;-60
2022/04/25 00:04:27;;;;;;;;;;;;;;;9.21;74.35;96815.81;4964085;28;19933;-61
2022/04/25 00:06:55;;;;;;;;;;;;;;;9.52;73.60;96812.72;4966762;28;20379;-58
2022/04/25 00:09:23;;;;;;;;;;;;;;;9.36;73.73;96812.50;4956117;28;19930;-60
2022/04/25 00:11:50;;;;;;;;;;;;;;;9.37;73.42;96817.59;4962973;28;19927;-60
2022/04/25 00:14:18;;;;;;;;;;;;;;;9.26;73.23;96816.41;4959374;28;19953;-59
2022/04/25 00:16:46;;;;;;;;;;;;;;;9.28;73.39;96816.09;4970107;28;19926;-59
2022/04/25 00:19:15;;;;;;;;;;;;;;;9.18;74.08;96811.84;4963616;28;19930;-59
2022/04/25 00:21:44;;;;;;;;;;;;;;;9.16;73.78;96812.19;4959398;28;19930;-61
2022/04/25 00:24:37;;;;;;;;;;;;;;;9.04;73.87;96819.41;4955409;28;19930;-61
2022/04/25 00:27:30;;;;;;;;;;;;;;;9.30;73.26;96817.34;4964108;28;20390;-60
2022/04/25 00:29:58;;;;;;;;;;;;;;;9.05;74.24;96823.72;4969997;28;20405;-59
2022/04/25 00:32:26;;;;;;;;;;;;;;;9.18;73.41;96825.41;4949990;28;20311;-59
2022/04/25 00:34:55;;;;;;;;;;;;;;;8.88;73.65;96828.09;4971136;28;20366;-58
2022/04/25 00:37:23;;;;;;;;;;;;;;;8.87;74.39;96829.22;4967808;28;19945;-59
2022/04/25 00:39:52;;;;;;;;;;;;;;;8.83;73.70;96827.50;4952176;28;20335;-58
2022/04/25 00:42:20;;;;;;;;;;;;;;;8.69;73.87;96827.72;4968666;28;19933;-59
2022/04/25 00:44:47;;;;;;;;;;;;;;;8.75;73.82;96823.72;4964275;28;19941;-61
2022/04/25 00:47:40;;;;;;;;;;;;;;;8.93;72.94;96835.25;4970506;28;20016;-64
2022/04/25 00:50:10;;;;;;;;;;;;;;;8.82;73.93;96839.44;4966209;28;19982;-59
2022/04/25 00:52:38;;;;;;;;;;;;;;;8.90;73.61;96836.72;4965049;28;20021;-61
2022/04/25 00:55:07;;;;;;;;;;;;;;;8.70;73.79;96834.72;4961695;28;20047;-60
2022/04/25 00:57:36;;;;;;;;;;;;;;;9.13;72.95;96834.50;4969636;28;19926;-61
2022/04/25 01:00:06;;;;;;;;;;;;;;;8.79;73.55;96835.50;4965827;28;19933;-60
2022/04/25 01:02:33;;;;;;;;;;;;;;;8.89;73.65;96835.13;4971204;28;19929;-59
2022/04/25 01:05:01;;;;;;;;;;;;;;;8.83;73.72;96830.19;4951671;29;19931;-60
2022/04/25 01:07:30;;;;;;;;;;;;;;;8.78;73.47;96838.50;4969484;28;19926;-60
2022/04/25 01:10:00;;;;;;;;;;;;;;;8.63;73.92;96834.44;4952508;28;19931;-60
2022/04/25 01:12:28;;;;;;;;;;;;;;;8.81;73.16;96833.25;4966396;28;19948;-60
2022/04/25 01:14:57;;;;;;;;;;;;;;;8.75;73.36;96837.25;4955242;28;20462;-60
2022/04/25 01:17:25;;;;;;;;;;;;;;;8.83;72.27;96828.28;4968641;28;19930;-60
2022/04/25 01:19:53;;;;;;;;;;;;;;;8.83;72.41;96839.13;4959702;28;19932;-61
2022/04/25 01:22:47;;;;;;;;;;;;;;;8.99;71.71;96835.84;4971016;28;20347;-60
2022/04/25 01:28:02;;;;;;;;;;;;;;;8.72;72.20;96840.59;4968693;28;20302;-58
2022/04/25 01:30:31;;;;;;;;;;;;;;;8.49;72.68;96842.75;4971638;28;19930;-58
2022/04/25 01:32:59;;;;;;;;;;;;;;;8.43;73.30;96845.97;4974348;28;20028;-58
2022/04/25 01:35:27;;;;;;;;;;;;;;;8.51;73.21;96851.34;4973474;28;19930;-58
2022/04/25 01:37:55;;;;;;;;;;;;;;;8.58;72.49;96854.38;4974137;28;20298;-59
2022/04/25 01:40:25;;;;;;;;;;;;;;;8.74;72.11;96853.84;4960898;28;19937;-63
2022/04/25 01:42:53;;;;;;;;;;;;;;;8.35;72.20;96858.38;4974289;28;20302;-60
2022/04/25 01:45:22;;;;;;;;;;;;;;;8.36;72.16;96857.28;4959450;28;19930;-59
2022/04/25 01:47:50;;;;;;;;;;;;;;;8.45;72.67;96857.25;4955496;28;20307;-60
2022/04/25 01:50:18;;;;;;;;;;;;;;;8.71;71.60;96860.69;4967574;28;19933;-60
2022/04/25 01:53:11;;;;;;;;;;;;;;;8.69;71.91;96868.34;4973845;28;19926;-58
2022/04/25 01:55:40;;;;;;;;;;;;;;;8.25;72.61;96872.22;4965796;28;20279;-60
2022/04/25 01:58:08;;;;;;;;;;;;;;;8.44;72.46;96871.91;4974224;28;19934;-59
2022/04/25 02:00:36;;;;;;;;;;;;;;;8.57;71.63;96866.28;4958610;28;20091;-59
2022/04/25 02:03:05;;;;;;;;;;;;;;;8.40;71.88;96872.56;4954786;28;19931;-59
2022/04/25 02:05:33;;;;;;;;;;;;;;;8.50;71.83;96867.91;4958488;28;19926;-59
2022/04/25 02:08:02;;;;;;;;;;;;;;;8.45;71.32;96873.50;4954388;29;20399;-58
2022/04/25 02:10:30;;;;;;;;;;;;;;;8.20;72.29;96873.19;4957453;28;19981;-60
2022/04/25 02:12:59;;;;;;;;;;;;;;;8.40;72.37;96872.56;4948288;28;19932;-62
2022/04/25 02:15:28;;;;;;;;;;;;;;;8.71;71.52;96874.22;4958116;28;20315;-59
2022/04/25 02:18:09;;;;;;;;;;;;;;;8.74;70.68;96881.72;4964903;28;19932;-60
2022/04/25 02:20:40;;;;;;;;;;;;;;;8.50;71.72;96881.44;4969641;28;19960;-59
2022/04/25 02:23:10;;;;;;;;;;;;;;;8.68;70.53;96880.28;4968676;28;19954;-59
2022/04/25 02:25:38;;;;;;;;;;;;;;;8.65;70.22;96873.59;4968289;28;19933;-61
2022/04/25 02:28:09;;;;;;;;;;;;;;;8.45;71.38;96887.03;4973395;28;19953;-58
2022/04/25 02:30:37;;;;;;;;;;;;;;;8.61;71.11;96888.91;4962560;28;19926;-58
2022/04/25 02:33:05;;;;;;;;;;;;;;;8.71;70.56;96885.06;4967676;28;19936;-58
2022/04/25 02:35:33;;;;;;;;;;;;;;;8.73;69.71;96890.13;4963496;28;19951;-61
2022/04/25 02:38:01;;;;;;;;;;;;;;;8.57;70.56;96895.28;4954083;29;20191;-58
2022/04/25 02:40:29;;;;;;;;;;;;;;;8.73;70.30;96893.63;4958388;28;19938;-58
2022/04/25 02:42:57;;;;;;;;;;;;;;;8.90;69.96;96890.88;4972810;28;19926;-59
2022/04/25 02:45:27;;;;;;;;;;;;;;;9.09;69.12;96892.38;4966357;28;20336;-59
2022/04/25 02:47:55;;;;;;;;;;;;;;;8.68;69.99;96903.84;4953836;29;20311;-59
2022/04/25 02:50:23;;;;;;;;;;;;;;;8.85;68.91;96899.19;4964876;28;20021;-63
2022/04/25 02:52:53;;;;;;;;;;;;;;;9.02;68.95;96894.81;4954180;28;19927;-60
2022/04/25 02:55:44;;;;;;;;;;;;;;;8.50;70.76;96903.91;4954499;28;20013;-60
2022/04/25 02:58:14;;;;;;;;;;;;;;;8.15;71.50;96897.75;4953654;28;20005;-60
2022/04/25 03:00:46;;;;;;;;;;;;;;;8.17;71.21;96900.91;4957220;28;19933;-60
2022/04/25 03:03:15;;;;;;;;;;;;;;;8.07;71.75;96903.94;4953619;29;19936;-60
2022/04/25 03:05:46;;;;;;;;;;;;;;;8.35;71.44;96905.16;4953403;28;19981;-61
2022/04/25 03:08:13;;;;;;;;;;;;;;;8.47;70.87;96909.97;4960533;28;19926;-60
2022/04/25 03:10:42;;;;;;;;;;;;;;;8.67;70.31;96911.19;4967847;28;19974;-60
2022/04/25 03:16:05;;;;;;;;;;;;;;;8.73;70.44;96917.22;4966678;28;19980;-61
2022/04/25 03:18:40;;;;;;;;;;;;;;;8.56;70.60;96923.47;4971854;28;20060;-60
2022/04/25 03:21:11;;;;;;;;;;;;;;;8.64;70.78;96919.97;4960513;28;19934;-60
2022/04/25 03:24:10;;;;;;;;;;;;;;;8.48;71.04;96924.28;4958359;28;20432;-59
2022/04/25 03:27:28;;;;;;;;;;;;;;;8.68;70.64;96931.72;4965512;28;19980;-60
2022/04/25 03:29:55;;;;;;;;;;;;;;;8.47;71.69;96933.50;4972073;28;19926;-60
2022/04/25 03:32:24;;;;;;;;;;;;;;;8.33;71.25;96929.06;4957769;28;19989;-60
2022/04/25 03:34:53;;;;;;;;;;;;;;;8.25;71.35;96927.13;4970205;28;19926;-66
2022/04/25 03:37:23;;;;;;;;;;;;;;;8.23;71.99;96929.38;4959152;28;19997;-60
2022/04/25 03:39:51;;;;;;;;;;;;;;;8.25;72.00;96934.47;4953985;29;20257;-60
2022/04/25 03:42:19;;;;;;;;;;;;;;;8.29;72.08;96944.34;4963506;28;20029;-61
2022/04/25 03:44:50;;;;;;;;;;;;;;;8.02;72.62;96941.97;4937663;28;23421;-60
2022/04/25 03:47:43;;;;;;;;;;;;;;;8.14;72.72;96950.22;4960991;28;19927;-59
2022/04/25 03:50:13;;;;;;;;;;;;;;;8.31;72.45;96950.25;4982684;28;19933;-60
2022/04/25 03:52:42;;;;;;;;;;;;;;;8.32;71.71;96951.81;4964428;28;20390;-60
2022/04/25 03:57:55;;;;;;;;;;;;;;;8.43;71.56;96952.31;4956862;28;19927;-61
2022/04/25 04:00:26;;;;;;;;;;;;;;;8.23;71.72;96955.66;4968964;28;19933;-60
2022/04/25 04:05:48;;;;;;;;;;;;;;;8.22;71.81;96957.56;4952568;28;19933;-60
2022/04/25 04:08:16;;;;;;;;;;;;;;;8.35;71.28;96959.28;4962278;28;19926;-60
2022/04/25 04:10:43;;;;;;;;;;;;;;;8.33;71.67;96969.66;4959290;28;19957;-60
2022/04/25 04:13:40;;;;;;;;;;;;;;;8.08;71.91;96968.53;4959196;28;20342;-61
2022/04/25 04:16:11;;;;;;;;;;;;;;;8.50;71.19;96970.78;4953539;28;19954;-59
2022/04/25 04:18:41;;;;;;;;;;;;;;;8.32;71.19;96978.88;4966738;28;20020;-59
2022/04/25 04:21:14;;;;;;;;;;;;;;;8.64;71.44;96972.19;4949112;28;20445;-61
2022/04/25 04:26:34;;;;;;;;;;;;;;;8.65;70.96;96981.13;4966433;28;20374;-59
2022/04/25 04:29:02;;;;;;;;;;;;;;;8.78;70.50;96985.53;4967410;28;20004;-60
2022/04/25 04:31:29;;;;;;;;;;;;;;;8.60;70.98;97000.22;4960399;28;19957;-58
2022/04/25 04:34:22;;;;;;;;;;;;;;;8.68;71.21;96990.50;4968354;28;19926;-59
2022/04/25 04:36:52;;;;;;;;;;;;;;;8.72;70.48;97010.41;4958875;28;19926;-60
2022/04/25 04:39:20;;;;;;;;;;;;;;;8.77;70.41;97011.03;4957932;28;19934;-60
2022/04/25 04:41:48;;;;;;;;;;;;;;;8.63;70.51;97016.63;4960586;28;20276;-60
2022/04/25 04:44:17;;;;;;;;;;;;;;;8.77;70.41;97015.66;4959882;28;19954;-60
2022/04/25 04:46:44;;;;;;;;;;;;;;;8.85;70.49;97020.28;4957242;28;19927;-60
2022/04/25 04:49:12;;;;;;;;;;;;;;;8.74;70.76;97033.34;4965612;28;19934;-62
2022/04/25 04:52:05;;;;;;;;;;;;;;;8.49;71.79;97026.03;4957688;28;20398;-59
2022/04/25 04:54:35;;;;;;;;;;;;;;;8.53;70.80;97029.72;4963003;28;19934;-62
2022/04/25 04:57:03;;;;;;;;;;;;;;;8.55;71.30;97041.78;4964699;28;19958;-60
2022/04/25 04:59:31;;;;;;;;;;;;;;;8.64;70.90;97041.81;4964669;28;19981;-59
2022/04/25 05:01:59;;;;;;;;;;;;;;;8.66;70.36;97042.28;4952052;28;19926;-60
2022/04/25 05:04:29;;;;;;;;;;;;;;;8.51;71.12;97048.16;4967693;28;20294;-59
2022/04/25 05:06:57;;;;;;;;;;;;;;;8.18;72.53;97047.78;4942482;28;19934;-59
2022/04/25 05:09:25;;;;;;;;;;;;;;;8.54;71.92;97055.66;4964403;28;19933;-59
2022/04/25 05:11:54;;;;;;;;;;;;;;;8.71;71.09;97055.66;4967891;28;19985;-61
2022/04/25 05:14:22;;;;;;;;;;;;;;;8.93;70.59;97060.88;4966850;28;22517;-59
2022/04/25 05:16:50;;;;;;;;;;;;;;;8.78;70.71;97057.88;4969717;28;19965;-61
2022/04/25 05:19:18;;;;;;;;;;;;;;;8.50;71.82;97060.91;4964349;28;19927;-60
2022/04/25 05:21:45;;;;;;;;;;;;;;;8.40;72.13;97062.00;4969459;28;20301;-61
2022/04/25 05:24:13;;;;;;;;;;;;;;;8.39;72.09;97071.25;4964445;28;19941;-60
2022/04/25 05:27:32;;;;;;;;;;;;;;;8.65;71.51;97076.69;4967101;28;19973;-60
2022/04/25 05:29:59;;;;;;;;;;;;;;;8.64;71.54;97077.00;4964528;28;19992;-59
2022/04/25 05:32:27;;;;;;;;;;;;;;;8.59;71.11;97079.88;4948238;28;19943;-61
2022/04/25 05:37:48;;;;;;;;;;;;;;;8.69;71.40;97079.56;4956331;28;21207;-62
2022/04/25 05:40:17;;;;;;;;;;;;;;;8.84;71.32;97083.66;4969892;28;20349;-60
2022/04/25 05:42:47;;;;;;;;;;;;;;;8.77;70.85;97092.28;4967686;28;19978;-61
2022/04/25 05:45:15;;;;;;;;;;;;;;;8.82;70.31;97089.41;4968762;28;19930;-60
2022/04/25 05:47:43;;;;;;;;;;;;;;;8.81;70.63;97097.84;4960320;28;20386;-59
2022/04/25 05:55:49;;;;;;;;;;;;;;;8.72;70.80;97099.75;4970860;28;19933;-60
2022/04/25 05:58:19;;;;;;;;;;;;;;;9.00;70.90;97105.63;4963038;28;19960;-60
2022/04/25 06:00:46;;;;;;;;;;;;;;;8.92;70.43;97116.16;4957661;28;19930;-60
2022/04/25 06:03:14;;;;;;;;;;;;;;;8.83;70.69;97109.94;4948413;28;19930;-61
2022/04/25 06:05:42;;;;;;;;;;;;;;;8.90;70.23;97118.41;4970465;28;19930;-60
2022/04/25 06:08:11;;;;;;;;;;;;;;;8.95;70.54;97124.75;4967121;28;19933;-58
2022/04/25 06:10:39;;;;;;;;;;;;;;;9.04;70.10;97128.28;4966253;28;20471;-58
2022/04/25 06:16:00;;;;;;;;;;;;;;;8.71;71.03;97136.09;4938485;28;19930;-59
2022/04/25 06:18:28;;;;;;;;;;;;;;;8.73;71.31;97142.75;4968332;28;19985;-59
2022/04/25 06:20:56;;;;;;;;;;;;;;;8.57;72.15;97142.44;4966143;28;19937;-61
2022/04/25 06:23:28;;;;;;;;;;;;;;;8.81;71.30;97142.00;4968296;28;20377;-59
2022/04/25 06:25:56;;;;;;;;;;;;;;;8.80;70.55;97145.03;4951312;28;20425;-59
2022/04/25 06:28:24;;;;;;;;;;;;;;;8.86;70.54;97151.88;4969133;28;20307;-59
2022/04/25 06:30:52;;;;;;;;;;;;;;;8.97;70.01;97144.22;4954637;29;19930;-65
2022/04/25 06:33:21;;;;;;;;;;;;;;;8.95;69.96;97151.84;4964302;28;20378;-59
2022/04/25 06:35:50;;;;;;;;;;;;;;;9.09;70.33;97160.63;4972461;28;19953;-59
2022/04/25 06:38:19;;;;;;;;;;;;;;;8.84;70.76;97160.31;4973688;28;19926;-58
2022/04/25 06:40:48;;;;;;;;;;;;;;;8.64;71.23;97163.66;4959810;28;20013;-59
2022/04/25 06:43:16;;;;;;;;;;;;;;;8.80;71.01;97163.97;4963022;28;20385;-59
2022/04/25 06:45:45;;;;;;;;;;;;;;;8.84;70.92;97163.03;4965984;28;20406;-59
2022/04/25 06:48:13;;;;;;;;;;;;;;;9.04;70.35;97174.34;4971578;28;20280;-60
2022/04/25 06:50:45;;;;;;;;;;;;;;;9.12;70.15;97174.34;4929098;28;19984;-61
2022/04/25 06:53:13;;;;;;;;;;;;;;;8.93;70.42;97166.53;4967162;28;19930;-60
2022/04/25 06:55:41;;;;;;;;;;;;;;;9.02;70.90;97174.66;4965474;28;19926;-61
2022/04/25 06:58:09;;;;;;;;;;;;;;;9.04;71.09;97172.41;4968465;28;19981;-59
2022/04/25 07:00:37;;;;;;;;;;;;;;;8.89;71.54;97179.13;4956009;28;20284;-60
2022/04/25 07:03:06;;;;;;;;;;;;;;;8.96;71.42;97180.56;4970302;28;19926;-58
2022/04/25 07:05:34;;;;;;;;;;;;;;;8.67;72.93;97173.81;4962729;28;19926;-59
2022/04/25 07:08:03;;;;;;;;;;;;;;;8.70;73.31;97178.63;4953232;29;20399;-59
2022/04/25 07:10:31;;;;;;;;;;;;;;;9.18;71.50;97177.69;4939072;28;19926;-59
2022/04/25 07:12:59;;;;;;;;;;;;;;;9.42;71.06;97182.59;4961584;28;20429;-59
2022/04/25 07:15:52;;;;;;;;;;;;;;;9.30;71.21;97183.25;4962103;28;19934;-59
2022/04/25 07:18:21;;;;;;;;;;;;;;;9.57;70.37;97189.44;4970781;28;20017;-59
2022/04/25 07:20:49;;;;;;;;;;;;;;;9.80;69.50;97188.13;4967311;28;19926;-59
2022/04/25 07:29:18;;;;;;;;;;;;;;;9.98;67.45;97194.28;4962817;28;19936;-59
2022/04/25 07:31:49;;;;;;;;;;;;;;;9.98;68.12;97189.66;4960755;28;19937;-59
2022/04/25 07:34:42;;;;;;;;;;;;;;;10.10;68.18;97199.03;4965529;28;20068;-59
2022/04/25 07:37:11;;;;;;;;;;;;;;;10.36;67.37;97204.38;4944986;28;20374;-59
2022/04/25 07:39:40;;;;;;;;;;;;;;;10.40;66.35;97203.41;4948041;28;19981;-59
2022/04/25 07:42:08;;;;;;;;;;;;;;;10.47;66.10;97209.09;4965455;28;20318;-60
2022/04/25 07:44:36;;;;;;;;;;;;;;;10.43;65.99;97213.59;4968456;28;19981;-56
2022/04/25 07:47:29;;;;;;;;;;;;;;;10.33;66.63;97211.22;4958963;28;19933;-57
2022/04/25 07:49:58;;;;;;;;;;;;;;;10.48;66.79;97213.41;4964144;28;19997;-60
2022/04/25 07:52:26;;;;;;;;;;;;;;;10.30;67.00;97222.75;4969469;28;19949;-62
2022/04/25 07:54:56;;;;;;;;;;;;;;;10.25;66.98;97224.88;4964205;28;19930;-59
2022/04/25 07:57:25;;;;;;;;;;;;;;;10.14;67.30;97224.41;4956283;28;20025;-59
2022/04/25 07:59:52;;;;;;;;;;;;;;;9.57;68.81;97222.75;4969424;28;20433;-61
2022/04/25 08:11:16;;;;;;;;;;;;;;;10.51;66.00;97238.34;5122633;23;20656;-76
2022/04/25 08:55:10;;;;;;;;;;;;;;;11.00;65.15;97291.91;4327663;28;19969;-77
2022/04/25 08:57:39;;;;;;;;;;;;;;;10.32;66.31;97296.53;4982118;28;19929;-80
2022/04/25 09:00:10;;;;;;;;;;;;;;;10.76;65.87;97299.91;4986600;28;19965;-78
2022/04/25 09:02:40;;;;;;;;;;;;;;;10.75;64.67;97298.28;4982978;28;19925;-74
2022/04/25 09:08:39;;;;;;;;;;;;;;;11.12;63.92;97290.41;4985291;28;20299;-72
2022/04/25 09:14:06;;;;;;;;;;;;;;;11.54;63.23;97292.00;4964818;28;19930;-72
2022/04/25 09:16:35;;;;;;;;;;;;;;;11.82;61.70;97291.47;4982960;28;19957;-71
2022/04/25 09:19:03;;;;;;;;;;;;;;;11.90;61.81;97295.28;4980349;28;19934;-73
2022/04/25 09:21:31;;;;;;;;;;;;;;;11.51;63.05;97306.28;4982093;28;19954;-75
2022/04/25 09:24:00;;;;;;;;;;;;;;;11.20;62.95;97303.94;4968906;28;20375;-77
2022/04/25 09:26:31;;;;;;;;;;;;;;;11.44;63.69;97303.28;4986828;28;19926;-75
2022/04/25 09:31:51;;;;;;;;;;;;;;;11.36;62.63;97308.81;4986079;28;20400;-74
2022/04/25 09:34:59;;;;;;;;;;;;;;;11.25;62.71;97309.19;4971208;28;19962;-74
2022/04/25 09:37:11;;;;;;;;;;;;;;;11.61;61.24;97317.88;4972081;28;19953;-74
2022/04/25 09:39:39;;;;;;;;;;;;;;;11.46;62.26;97311.13;4966290;28;19926;-75
2022/04/25 09:42:09;;;;;;;;;;;;;;;11.30;60.85;97312.84;4977875;28;19926;-75
2022/04/25 09:44:56;;;;;;;;;;;;;;;11.73;60.69;97317.97;4960333;28;20323;-75
2022/04/25 09:47:27;;;;;;;;;;;;;;;11.97;60.38;97320.00;4980240;28;19934;-72
2022/04/25 09:49:59;;;;;;;;;;;;;;;11.94;59.04;97317.97;4961460;28;19977;-73
2022/04/25 09:52:29;;;;;;;;;;;;;;;11.99;59.31;97321.28;4978040;28;19933;-72
2022/04/25 09:54:59;;;;;;;;;;;;;;;11.99;59.16;97313.13;4976846;28;19933;-73
2022/04/25 09:57:52;;;;;;;;;;;;;;;12.18;58.62;97319.97;4983414;28;19926;-74
2022/04/25 10:00:33;;;;;;;;;;;;;;;11.93;60.14;97321.81;4985537;28;19933;-73
2022/04/25 10:03:02;;;;;;;;;;;;;;;11.84;59.48;97321.91;4961531;28;19932;-76
2022/04/25 10:05:37;;;;;;;;;;;;;;;12.03;59.25;97319.47;4982068;28;19926;-74
2022/04/25 10:08:05;;;;;;;;;;;;;;;12.16;59.80;97322.25;4987156;28;19934;-80
2022/04/25 10:10:34;;;;;;;;;;;;;;;11.55;60.96;97323.53;4993085;28;19926;-74
2022/04/25 10:13:02;;;;;;;;;;;;;;;11.75;60.82;97326.59;4971864;28;19948;-74
2022/04/25 10:15:34;;;;;;;;;;;;;;;11.68;60.43;97331.78;4987189;28;20303;-73
2022/04/25 10:21:18;;;;;;;;;;;;;;;11.53;60.71;97323.06;4983232;28;19934;-73
2022/04/25 10:23:46;;;;;;;;;;;;;;;11.67;60.63;97319.31;4991101;28;19933;-71
2022/04/25 10:26:19;;;;;;;;;;;;;;;11.73;61.06;97328.84;4985494;28;21165;-72
2022/04/25 10:28:53;;;;;;;;;;;;;;;11.86;59.91;97330.53;4987173;28;20451;-74
2022/04/25 10:31:25;;;;;;;;;;;;;;;11.98;58.48;97327.03;4987583;28;20013;-74
2022/04/25 10:33:54;;;;;;;;;;;;;;;11.70;59.31;97332.22;4972273;28;19932;-76
2022/04/25 10:36:41;;;;;;;;;;;;;;;11.92;60.07;97333.84;4967641;28;19926;-76
2022/04/25 10:39:12;;;;;;;;;;;;;;;12.20;59.22;97334.06;4954749;28;19926;-72
2022/04/25 10:44:48;;;;;;;;;;;;;;;12.48;57.83;97335.03;4987604;28;19933;-73
2022/04/25 10:47:17;;;;;;;;;;;;;;;12.58;56.63;97336.53;4983732;28;19934;-72
2022/04/25 10:49:46;;;;;;;;;;;;;;;12.45;57.92;97341.16;4983972;28;20463;-72
2022/04/25 10:52:43;;;;;;;;;;;;;;;12.28;58.36;97341.34;4979027;28;19925;-75
2022/04/25 10:55:12;;;;;;;;;;;;;;;12.35;57.60;97347.03;4985926;28;19925;-73
2022/04/25 10:57:46;;;;;;;;;;;;;;;12.42;57.81;97349.22;4984745;28;20010;-76
2022/04/25 11:00:45;;;;;;;;;;;;;;;12.56;57.57;97350.47;4974036;28;19926;-73
2022/04/25 11:03:15;;;;;;;;;;;;;;;12.63;56.15;97354.59;4983676;28;20256;-73
2022/04/25 11:05:44;;;;;;;;;;;;;;;12.83;55.58;97356.44;4984373;28;19926;-73
2022/04/25 11:08:34;;;;;;;;;;;;;;;12.95;53.95;97351.00;4983120;28;19925;-74
2022/04/25 11:11:03;;;;;;;;;;;;;;;12.81;54.54;97353.25;4982366;28;20343;-73
2022/04/25 11:13:32;;;;;;;;;;;;;;;12.59;53.60;97352.53;4969343;28;19926;-75
2022/04/25 11:16:01;;;;;;;;;;;;;;;12.55;54.04;97350.84;4984128;28;19942;-73
2022/04/25 11:18:43;;;;;;;;;;;;;;;12.69;55.31;97361.44;4974552;28;19984;-73
2022/04/25 11:24:06;;;;;;;;;;;;;;;12.65;55.47;97372.19;4978218;28;20386;-73
2022/04/25 11:26:54;;;;;;;;;;;;;;;12.40;54.89;97371.34;4986503;28;19940;-74
2022/04/25 11:29:23;;;;;;;;;;;;;;;12.57;54.81;97367.66;4977458;28;19929;-73
2022/04/25 11:31:53;;;;;;;;;;;;;;;12.56;55.63;97366.84;4979010;28;19926;-73
2022/04/25 11:34:30;;;;;;;;;;;;;;;12.32;56.61;97373.03;4968715;28;20383;-73
2022/04/25 11:40:28;;;;;;;;;;;;;;;12.67;56.99;97377.31;4965328;28;19940;-73
2022/04/25 11:42:59;;;;;;;;;;;;;;;12.71;54.97;97381.75;4969302;28;19981;-73
2022/04/25 11:45:28;;;;;;;;;;;;;;;12.58;55.59;97378.22;4974546;28;19942;-73
2022/04/25 11:47:57;;;;;;;;;;;;;;;12.62;55.97;97388.41;4962586;28;19964;-73
2022/04/25 11:50:51;;;;;;;;;;;;;;;12.43;55.88;97386.22;4967232;28;19926;-72
2022/04/25 11:53:34;;;;;;;;;;;;;;;12.54;56.28;97392.84;4976039;28;19926;-72
2022/04/25 11:56:17;;;;;;;;;;;;;;;12.40;57.10;97397.78;4963818;28;19932;-72
2022/04/25 11:58:48;;;;;;;;;;;;;;;12.64;56.35;97388.91;4948146;28;19926;-73
2022/04/25 12:01:30;;;;;;;;;;;;;;;12.57;55.80;97392.97;4957638;28;19933;-72
2022/04/25 12:04:13;;;;;;;;;;;;;;;12.42;54.97;97396.34;4957530;28;19980;-72
2022/04/25 12:06:50;;;;;;;;;;;;;;;12.65;56.22;97395.94;4963924;28;19949;-72
2022/04/25 12:17:40;;;;;;;;;;;;;;;12.80;53.84;97398.00;4954564;28;19926;-72
2022/04/25 12:20:33;;;;;;;;;;;;;;;12.80;54.87;97407.00;4958042;28;19930;-71
2022/04/25 12:23:06;;;;;;;;;;;;;;;12.58;56.17;97400.00;4956706;28;19933;-72
2022/04/25 12:25:38;;;;;;;;;;;;;;;12.66;54.88;97397.53;4952798;28;19926;-72
2022/04/25 12:28:07;;;;;;;;;;;;;;;12.95;55.46;97402.03;4956207;28;19930;-73
2022/04/25 12:30:51;;;;;;;;;;;;;;;13.05;54.29;97402.38;4948786;28;20308;-72
2022/04/25 12:33:20;;;;;;;;;;;;;;;13.00;53.00;97397.13;4954273;28;19926;-72
2022/04/25 12:35:48;;;;;;;;;;;;;;;13.10;53.55;97404.88;4948078;28;19933;-73
2022/04/25 12:38:34;;;;;;;;;;;;;;;13.24;53.43;97410.00;4948696;28;19976;-73
2022/04/25 12:41:27;;;;;;;;;;;;;;;13.20;53.73;97408.28;4959713;28;19930;-72
2022/04/25 12:43:55;;;;;;;;;;;;;;;13.41;52.64;97400.00;4954421;28;19954;-74
2022/04/25 12:46:44;;;;;;;;;;;;;;;13.74;52.17;97399.84;4955204;28;20300;-73
2022/04/25 12:49:13;;;;;;;;;;;;;;;13.29;53.03;97400.81;4951307;28;19941;-74
2022/04/25 12:51:43;;;;;;;;;;;;;;;13.71;52.22;97406.00;4954118;28;20393;-74
2022/04/25 12:54:21;;;;;;;;;;;;;;;13.93;52.05;97407.44;4967588;28;19926;-72
2022/04/25 12:56:50;;;;;;;;;;;;;;;13.83;52.46;97404.03;4958041;28;19933;-72
2022/04/25 12:59:25;;;;;;;;;;;;;;;14.18;52.06;97410.91;4963946;28;19973;-73
2022/04/25 13:04:55;;;;;;;;;;;;;;;14.05;51.42;97410.94;4966536;28;19934;-72
2022/04/25 13:07:49;;;;;;;;;;;;;;;14.26;50.18;97407.22;4956773;28;19934;-73
2022/04/25 13:10:18;;;;;;;;;;;;;;;14.16;50.57;97411.22;4949805;28;19940;-72
2022/04/25 13:12:50;;;;;;;;;;;;;;;14.20;51.47;97414.88;4960699;28;19927;-73
2022/04/25 13:15:19;;;;;;;;;;;;;;;13.60;52.23;97406.47;4955439;28;20025;-74
2022/04/25 13:17:48;;;;;;;;;;;;;;;13.84;50.93;97416.56;4955187;28;19965;-70
2022/04/25 13:20:18;;;;;;;;;;;;;;;13.96;50.57;97420.41;4959926;28;19941;-74
2022/04/25 13:22:46;;;;;;;;;;;;;;;14.26;50.61;97413.47;4949439;28;19926;-70
2022/04/25 13:25:20;;;;;;;;;;;;;;;14.36;51.50;97423.13;4942979;28;20374;-69
2022/04/25 13:30:39;;;;;;;;;;;;;;;14.16;50.68;97419.44;4951408;28;19930;-71
2022/04/25 13:33:32;;;;;;;;;;;;;;;14.00;49.96;97418.56;4963462;28;20344;-71
2022/04/25 13:36:27;;;;;;;;;;;;;;;14.11;51.52;97408.75;4964525;28;19926;-71
2022/04/25 13:38:55;;;;;;;;;;;;;;;14.00;50.55;97408.44;4961572;28;19926;-74
2022/04/25 13:41:23;;;;;;;;;;;;;;;14.19;50.28;97405.09;4964514;28;20375;-72
2022/04/25 13:43:51;;;;;;;;;;;;;;;13.83;50.05;97408.72;4963221;28;20024;-73
2022/04/25 13:46:19;;;;;;;;;;;;;;;14.08;50.33;97407.50;4938290;28;19932;-72
2022/04/25 13:48:47;;;;;;;;;;;;;;;14.34;48.69;97406.28;4954322;28;19937;-75
2022/04/25 13:51:22;;;;;;;;;;;;;;;14.65;49.49;97411.88;4964556;28;19926;-74
2022/04/25 13:53:51;;;;;;;;;;;;;;;14.60;48.69;97405.88;4968988;28;19930;-74
2022/04/25 13:56:20;;;;;;;;;;;;;;;14.09;49.38;97400.91;4982333;28;19953;-72
2022/04/25 13:58:49;;;;;;;;;;;;;;;14.47;50.09;97410.56;4986892;28;20385;-74
2022/04/25 14:01:20;;;;;;;;;;;;;;;14.41;49.06;97401.00;4982172;28;19930;-74
2022/04/25 14:03:49;;;;;;;;;;;;;;;14.37;49.61;97405.56;4980944;28;20033;-75
2022/04/25 14:06:17;;;;;;;;;;;;;;;13.86;49.16;97405.31;4979055;28;20346;-72
2022/04/25 14:08:45;;;;;;;;;;;;;;;13.98;49.63;97405.25;4981366;28;20331;-72
2022/04/25 14:11:24;;;;;;;;;;;;;;;14.32;50.28;97406.63;4967724;28;19930;-74
2022/04/25 14:13:52;;;;;;;;;;;;;;;14.34;48.60;97411.75;4971090;28;19930;-71
2022/04/25 14:16:20;;;;;;;;;;;;;;;14.41;48.40;97403.75;4970979;28;19926;-71
2022/04/25 14:18:48;;;;;;;;;;;;;;;14.77;48.42;97408.28;4980280;28;19930;-75
2022/04/25 14:21:22;;;;;;;;;;;;;;;14.73;47.93;97401.13;4962538;28;19989;-69
2022/04/25 14:23:50;;;;;;;;;;;;;;;14.79;47.70;97403.22;4981394;28;19953;-72
2022/04/25 14:26:19;;;;;;;;;;;;;;;14.76;47.97;97406.69;4979417;28;19934;-72
2022/04/25 14:28:52;;;;;;;;;;;;;;;14.42;48.23;97399.88;4969330;28;20024;-71
2022/04/25 14:32:00;;;;;;;;;;;;;;;14.61;48.74;97394.56;4988332;28;19936;-71
2022/04/25 14:34:28;;;;;;;;;;;;;;;14.58;47.70;97395.25;4985365;28;19930;-70
2022/04/25 14:36:56;;;;;;;;;;;;;;;14.92;49.09;97398.50;4985326;28;19926;-69
2022/04/25 14:39:24;;;;;;;;;;;;;;;15.15;47.21;97402.19;4986276;28;20312;-70
2022/04/25 14:41:52;;;;;;;;;;;;;;;15.28;46.70;97393.88;4986561;28;19967;-71
2022/04/25 14:44:21;;;;;;;;;;;;;;;15.39;45.94;97386.72;4986984;28;19958;-72
2022/04/25 14:46:51;;;;;;;;;;;;;;;15.18;46.32;97387.81;4986196;28;19980;-72
2022/04/25 14:54:20;;;;;;;;;;;;;;;15.17;45.52;97383.47;4986450;28;20020;-72
2022/04/25 14:55:27;;;;;;;;;;;;;;;15.03;45.43;97385.88;4987807;28;19926;-72
2022/04/25 14:57:55;;;;;;;;;;;;;;;14.96;47.16;97391.16;4956593;28;20403;-74
2022/04/25 15:00:25;;;;;;;;;;;;;;;14.83;46.71;97389.66;4958923;28;19926;-73
2022/04/25 15:02:53;;;;;;;;;;;;;;;15.05;46.78;97394.53;4955108;28;19927;-73
2022/04/25 15:05:46;;;;;;;;;;;;;;;15.00;47.00;97386.56;4958954;28;20407;-73
2022/04/25 15:08:14;;;;;;;;;;;;;;;15.09;47.16;97398.16;4959170;28;19934;-72
2022/04/25 15:10:42;;;;;;;;;;;;;;;15.44;47.57;97397.41;4954964;28;19926;-73
2022/04/25 15:13:10;;;;;;;;;;;;;;;15.38;47.76;97402.34;4949563;28;19933;-73
2022/04/25 15:15:39;;;;;;;;;;;;;;;15.19;47.61;97405.81;4965721;28;19926;-73
2022/04/25 15:18:33;;;;;;;;;;;;;;;15.25;46.40;97405.56;4949511;28;19934;-72
2022/04/25 15:21:04;;;;;;;;;;;;;;;15.35;46.56;97407.75;4963224;28;19926;-73